createdAt,value
2019-02-05T00:00:35.530Z,10.93
2019-02-05T00:03:08.561Z,15.47
2019-02-05T00:05:37.469Z,13.47
2019-02-05T00:08:06.476Z,17.33
2019-02-05T00:10:35.730Z,17.37
2019-02-05T00:13:04.793Z,15.77
2019-02-05T00:15:34.436Z,22.57
2019-02-05T00:18:03.582Z,17.27
2019-02-05T00:20:32.831Z,14.77
2019-02-05T00:23:02.191Z,19.47
2019-02-05T00:25:31.193Z,15.90
2019-02-05T00:28:00.429Z,16.03
2019-02-05T00:30:29.842Z,19.27
2019-02-05T00:32:58.756Z,18.43
2019-02-05T00:35:28.001Z,18.03
2019-02-05T00:37:57.109Z,20.03
2019-02-05T00:40:26.014Z,17.53
2019-02-05T00:42:55.266Z,15.87
2019-02-05T00:45:24.669Z,16.03
2019-02-05T00:47:53.923Z,16.03
2019-02-05T00:50:22.932Z,20.30
2019-02-05T00:52:51.869Z,18.13
2019-02-05T00:55:20.778Z,16.47
2019-02-05T00:57:50.017Z,16.47
2019-02-05T01:00:30.847Z,16.30
2019-02-05T01:02:59.929Z,17.97
2019-02-05T01:05:28.835Z,19.23
2019-02-05T01:07:57.853Z,18.20
2019-02-05T01:10:27.586Z,18.47
2019-02-05T01:12:56.976Z,17.73
2019-02-05T01:15:26.458Z,20.07
2019-02-05T01:17:55.829Z,15.50
2019-02-05T01:20:25.212Z,18.67
2019-02-05T01:22:54.218Z,17.20
2019-02-05T01:25:23.140Z,20.30
2019-02-05T01:27:52.328Z,18.93
2019-02-05T01:30:22.818Z,17.37
2019-02-05T01:32:52.125Z,20.77
2019-02-05T01:35:21.694Z,17.17
2019-02-05T01:37:50.991Z,20.00
2019-02-05T01:40:21.449Z,20.00
2019-02-05T01:42:50.362Z,22.53
2019-02-05T01:45:20.868Z,23.50
2019-02-05T01:47:50.194Z,19.83
2019-02-05T01:50:20.365Z,22.40
2019-02-05T01:52:49.634Z,22.13
2019-02-05T01:55:18.981Z,23.77
2019-02-05T01:57:48.291Z,21.50
2019-02-05T02:00:32.133Z,22.73
2019-02-05T02:03:01.461Z,23.37
2019-02-05T02:05:30.466Z,22.17
2019-02-05T02:07:59.763Z,22.33
2019-02-05T02:10:30.038Z,22.97
2019-02-05T02:12:59.416Z,25.10
2019-02-05T02:15:28.703Z,23.93
2019-02-05T02:17:57.933Z,23.70
2019-02-05T02:20:27.342Z,24.70
2019-02-05T02:22:57.111Z,22.33
2019-02-05T02:25:26.155Z,24.00
2019-02-05T02:27:55.479Z,25.17
2019-02-05T02:30:30.848Z,24.03
2019-02-05T02:32:59.854Z,24.17
2019-02-05T02:35:29.085Z,23.07
2019-02-05T02:37:58.117Z,24.27
2019-02-05T02:40:27.034Z,25.43
2019-02-05T02:42:56.279Z,23.47
2019-02-05T02:45:25.354Z,24.70
2019-02-05T02:47:54.620Z,24.80
2019-02-05T02:50:23.621Z,28.13
2019-02-05T02:52:52.628Z,24.17
2019-02-05T02:55:21.870Z,27.67
2019-02-05T02:57:50.869Z,25.63
2019-02-05T03:00:20.775Z,30.53
2019-02-05T03:02:51.524Z,29.13
2019-02-05T03:05:21.575Z,29.20
2019-02-05T03:07:50.977Z,28.17
2019-02-05T03:10:20.965Z,32.07
2019-02-05T03:12:50.269Z,30.13
2019-02-05T03:15:19.300Z,35.70
2019-02-05T03:17:48.610Z,37.03
2019-02-05T03:20:18.789Z,33.73
2019-02-05T03:22:47.809Z,35.00
2019-02-05T03:25:22.123Z,37.40
2019-02-05T03:27:53.695Z,32.60
2019-02-05T03:30:25.663Z,32.53
2019-02-05T03:32:56.500Z,35.53
2019-02-05T03:35:25.928Z,32.73
2019-02-05T03:37:55.350Z,36.73
2019-02-05T03:40:30.672Z,36.23
2019-02-05T03:43:00.087Z,34.43
2019-02-05T03:45:31.555Z,34.70
2019-02-05T03:48:05.390Z,36.50
2019-02-05T03:50:35.931Z,34.50
2019-02-05T03:53:11.546Z,33.77
2019-02-05T03:55:52.576Z,40.33
2019-02-05T03:58:56.271Z,37.40
2019-02-05T04:01:28.672Z,35.20
2019-02-05T04:04:01.885Z,37.73
2019-02-05T04:06:32.337Z,38.37
2019-02-05T04:09:04.362Z,40.57
2019-02-05T04:11:34.845Z,41.17
2019-02-05T04:14:07.986Z,38.43
2019-02-05T04:16:59.631Z,41.83
2019-02-05T04:20:00.618Z,40.83
2019-02-05T04:22:53.193Z,44.37
2019-02-05T04:25:37.050Z,41.23
2019-02-05T04:28:34.888Z,41.13
2019-02-05T04:31:31.313Z,42.17
2019-02-05T04:34:21.650Z,40.37
2019-02-05T04:37:08.714Z,42.27
2019-02-05T04:39:41.966Z,44.30
2019-02-05T04:42:18.101Z,39.47
2019-02-05T04:45:08.442Z,41.60
2019-02-05T04:48:09.093Z,39.93
2019-02-05T04:50:39.765Z,40.40
2019-02-05T04:53:12.073Z,40.40
2019-02-05T04:55:46.958Z,40.43
2019-02-05T04:58:44.921Z,39.23
2019-02-05T05:01:41.146Z,36.27
2019-02-05T05:04:19.022Z,37.73
2019-02-05T05:07:09.305Z,39.60
2019-02-05T05:09:41.714Z,42.73
2019-02-05T05:12:10.720Z,36.47
2019-02-05T05:14:40.373Z,39.37
2019-02-05T05:17:09.708Z,40.47
2019-02-05T05:19:39.105Z,36.50
2019-02-05T05:22:08.214Z,34.97
2019-02-05T05:24:37.630Z,35.13
2019-02-05T05:27:07.127Z,38.63
2019-02-05T05:29:36.494Z,33.13
2019-02-05T05:32:06.070Z,34.10
2019-02-05T05:34:35.397Z,35.57
2019-02-05T05:37:03.683Z,34.60
2019-02-05T05:39:33.090Z,38.50
2019-02-05T05:42:02.421Z,35.37
2019-02-05T05:44:31.450Z,33.07
2019-02-05T05:47:00.775Z,34.77
2019-02-05T05:49:30.098Z,35.43
2019-02-05T05:51:59.464Z,33.63
2019-02-05T05:54:28.802Z,33.77
2019-02-05T05:56:58.139Z,35.73
2019-02-05T05:59:27.157Z,33.20
2019-02-05T06:01:56.079Z,33.20
2019-02-05T06:04:25.291Z,33.50
2019-02-05T06:06:54.624Z,35.10
2019-02-05T06:09:23.944Z,30.43
2019-02-05T06:11:53.266Z,36.80
2019-02-05T06:14:22.630Z,34.87
2019-02-05T06:16:51.960Z,33.07
2019-02-05T06:19:21.290Z,33.00
2019-02-05T06:21:50.656Z,37.00
2019-02-05T06:24:19.986Z,32.67
2019-02-05T06:26:48.981Z,30.73
2019-02-05T06:29:18.321Z,35.27
2019-02-05T06:31:47.654Z,34.23
2019-02-05T06:34:16.989Z,34.17
2019-02-05T06:36:46.651Z,34.73
2019-02-05T06:39:15.983Z,33.07
2019-02-05T06:41:45.343Z,33.30
2019-02-05T06:44:14.753Z,35.40
2019-02-05T06:46:44.081Z,37.08
2019-02-05T06:49:13.414Z,34.27
2019-02-05T06:51:43.113Z,35.43
2019-02-05T06:54:12.448Z,39.37
2019-02-05T06:56:42.421Z,33.70
2019-02-05T06:59:11.923Z,33.67
2019-02-05T07:01:41.325Z,35.40
2019-02-05T07:04:10.649Z,37.83
2019-02-05T07:06:40.024Z,34.50
2019-02-05T07:09:09.863Z,39.83
2019-02-05T07:11:38.983Z,40.17
2019-02-05T07:14:08.340Z,39.37
2019-02-05T07:16:37.688Z,44.47
2019-02-05T07:19:07.097Z,41.07
2019-02-05T07:21:36.467Z,40.67
2019-02-05T07:24:11.044Z,45.75
2019-02-05T07:26:40.384Z,43.30
2019-02-05T07:29:09.756Z,36.27
2019-02-05T07:31:39.103Z,40.03
2019-02-05T07:34:08.514Z,37.27
2019-02-05T07:36:38.052Z,37.10
2019-02-05T07:39:08.615Z,36.67
2019-02-05T07:41:38.104Z,40.37
2019-02-05T07:44:07.557Z,38.63
2019-02-05T07:46:37.036Z,35.73
2019-02-05T07:49:06.379Z,41.67
2019-02-05T07:51:35.428Z,38.07
2019-02-05T07:54:05.115Z,38.77
2019-02-05T07:56:34.838Z,38.53
2019-02-05T07:59:10.180Z,38.70
2019-02-05T08:01:35.696Z,33.93
2019-02-05T08:04:05.355Z,40.30
2019-02-05T08:06:35.022Z,37.57
2019-02-05T08:09:07.836Z,32.97
2019-02-05T08:11:37.319Z,38.10
2019-02-05T08:14:07.000Z,36.00
2019-02-05T08:16:36.449Z,39.33
2019-02-05T08:19:05.924Z,35.27
2019-02-05T08:21:35.447Z,35.70
2019-02-05T08:24:05.505Z,34.93
2019-02-05T08:26:34.848Z,35.40
2019-02-05T08:29:04.766Z,36.00
2019-02-05T08:31:34.192Z,36.63
2019-02-05T08:34:03.652Z,35.70
2019-02-05T08:36:33.104Z,38.70
2019-02-05T08:39:02.440Z,39.37
2019-02-05T08:41:31.787Z,37.77
2019-02-05T08:44:01.162Z,40.03
2019-02-05T08:46:30.782Z,36.43
2019-02-05T08:49:00.132Z,36.43
2019-02-05T08:51:29.506Z,35.63
2019-02-05T08:53:58.858Z,29.77
2019-02-05T08:56:28.205Z,42.13
2019-02-05T08:58:57.582Z,32.17
2019-02-05T09:01:27.070Z,32.00
2019-02-05T09:03:56.798Z,36.63
2019-02-05T09:06:26.173Z,34.13
2019-02-05T09:08:55.517Z,36.20
2019-02-05T09:11:24.860Z,31.47
2019-02-05T09:13:54.237Z,32.73
2019-02-05T09:16:23.587Z,33.97
2019-02-05T09:18:53.013Z,31.60
2019-02-05T09:21:22.380Z,34.57
2019-02-05T09:23:51.881Z,37.03
2019-02-05T09:26:21.299Z,38.73
2019-02-05T09:28:52.531Z,31.93
2019-02-05T09:31:21.717Z,36.37
2019-02-05T09:33:51.061Z,33.77
2019-02-05T09:36:20.703Z,30.90
2019-02-05T09:38:50.056Z,34.73
2019-02-05T09:41:19.624Z,36.73
2019-02-05T09:43:49.009Z,34.50
2019-02-05T09:46:18.421Z,32.07
2019-02-05T09:48:47.770Z,37.20
2019-02-05T09:51:17.516Z,35.80
2019-02-05T09:53:46.865Z,34.83
2019-02-05T09:56:16.204Z,32.60
2019-02-05T09:58:45.651Z,34.73
2019-02-05T10:01:15.073Z,36.80
2019-02-05T10:03:44.408Z,35.90
2019-02-05T10:06:13.792Z,34.27
2019-02-05T10:08:43.471Z,43.03
2019-02-05T10:11:12.820Z,39.67
2019-02-05T10:13:42.267Z,37.37
2019-02-05T10:16:11.824Z,32.63
2019-02-05T10:18:41.173Z,37.40
2019-02-05T10:21:10.761Z,37.90
2019-02-05T10:23:40.184Z,40.07
2019-02-05T10:26:09.873Z,39.03
2019-02-05T10:28:39.328Z,38.47
2019-02-05T10:31:08.673Z,37.67
2019-02-05T10:33:38.017Z,33.97
2019-02-05T10:36:07.533Z,35.33
2019-02-05T10:38:36.980Z,37.27
2019-02-05T10:41:06.568Z,36.10
2019-02-05T10:43:36.081Z,38.00
2019-02-05T10:46:06.131Z,42.83
2019-02-05T10:48:35.622Z,33.13
2019-02-05T10:51:05.233Z,30.93
2019-02-05T10:53:47.559Z,33.83
2019-02-05T10:56:17.009Z,34.63
2019-02-05T10:58:46.425Z,30.97
2019-02-05T11:01:15.772Z,37.50
2019-02-05T11:03:50.096Z,32.63
2019-02-05T11:06:20.192Z,40.13
2019-02-05T11:08:49.804Z,35.20
2019-02-05T11:11:19.194Z,32.60
2019-02-05T11:13:48.607Z,36.30
2019-02-05T11:16:18.022Z,32.20
2019-02-05T11:18:47.392Z,31.67
2019-02-05T11:21:16.740Z,32.37
2019-02-05T11:23:46.160Z,34.13
2019-02-05T11:26:15.918Z,37.23
2019-02-05T11:28:45.266Z,32.37
2019-02-05T11:31:14.608Z,35.00
2019-02-05T11:33:44.065Z,33.80
2019-02-05T11:36:13.476Z,31.17
2019-02-05T11:38:42.821Z,27.13
2019-02-05T11:41:13.735Z,31.23
2019-02-05T11:43:43.246Z,31.67
2019-02-05T11:46:12.733Z,36.87
2019-02-05T11:48:42.243Z,27.40
2019-02-05T11:51:11.654Z,29.53
2019-02-05T11:53:40.990Z,25.40
2019-02-05T11:56:10.402Z,29.73
2019-02-05T11:58:40.112Z,28.63
2019-02-05T12:01:10.829Z,25.27
2019-02-05T12:03:40.347Z,29.27
2019-02-05T12:06:09.747Z,23.73
2019-02-05T12:08:39.105Z,26.13
2019-02-05T12:11:08.565Z,28.97
2019-02-05T12:13:37.899Z,26.83
2019-02-05T12:16:07.488Z,24.67
2019-02-05T12:18:36.954Z,24.30
2019-02-05T12:21:06.441Z,26.17
2019-02-05T12:23:35.896Z,26.57
2019-02-05T12:26:05.403Z,30.20
2019-02-05T12:28:34.744Z,26.03
2019-02-05T12:31:04.224Z,26.57
2019-02-05T12:33:33.602Z,25.37
2019-02-05T12:36:03.013Z,22.73
2019-02-05T12:38:32.420Z,27.33
2019-02-05T12:41:01.785Z,23.40
2019-02-05T12:43:31.137Z,23.53
2019-02-05T12:46:00.549Z,25.17
2019-02-05T12:48:29.999Z,24.23
2019-02-05T12:50:59.353Z,22.87
2019-02-05T12:53:28.832Z,23.07
2019-02-05T12:55:58.277Z,23.20
2019-02-05T12:58:27.624Z,23.80
2019-02-05T13:01:00.183Z,21.03
2019-02-05T13:03:28.270Z,21.43
2019-02-05T13:05:57.688Z,23.50
2019-02-05T13:08:27.168Z,20.80
2019-02-05T13:10:56.536Z,23.30
2019-02-05T13:13:26.128Z,24.63
2019-02-05T13:15:55.492Z,27.57
2019-02-05T13:18:25.032Z,25.80
2019-02-05T13:20:54.400Z,25.23
2019-02-05T13:23:23.752Z,27.43
2019-02-05T13:25:53.190Z,23.97
2019-02-05T13:28:22.605Z,28.33
2019-02-05T13:30:52.016Z,24.77
2019-02-05T13:33:21.453Z,26.67
2019-02-05T13:35:50.868Z,23.07
2019-02-05T13:38:20.290Z,28.90
2019-02-05T13:40:49.720Z,25.90
2019-02-05T13:43:19.065Z,26.47
2019-02-05T13:45:48.544Z,23.20
2019-02-05T13:48:17.987Z,26.17
2019-02-05T13:50:47.476Z,26.73
2019-02-05T13:53:16.813Z,24.93
2019-02-05T13:55:47.019Z,25.30
2019-02-05T13:58:16.501Z,18.63
2019-02-05T14:00:50.697Z,19.07
2019-02-05T14:03:20.159Z,24.37
2019-02-05T14:05:49.625Z,28.13
2019-02-05T14:08:19.044Z,22.83
2019-02-05T14:10:48.876Z,25.00
2019-02-05T14:13:18.349Z,22.47
2019-02-05T14:15:49.904Z,22.03
2019-02-05T14:18:22.619Z,22.47
2019-02-05T14:20:50.588Z,25.33
2019-02-05T14:23:20.008Z,24.77
2019-02-05T14:25:49.530Z,21.30
2019-02-05T14:28:18.940Z,24.70
2019-02-05T14:30:50.997Z,23.33
2019-02-05T14:33:21.426Z,25.47
2019-02-05T14:35:50.816Z,22.80
2019-02-05T14:38:20.335Z,22.30
2019-02-05T14:40:49.777Z,21.93
2019-02-05T14:43:19.188Z,25.23
2019-02-05T14:45:48.685Z,23.80
2019-02-05T14:48:18.051Z,25.40
2019-02-05T14:50:48.081Z,25.47
2019-02-05T14:53:17.452Z,24.90
2019-02-05T14:55:46.828Z,23.07
2019-02-05T14:58:16.303Z,21.57
2019-02-05T15:00:45.736Z,25.13
2019-02-05T15:03:15.355Z,23.03
2019-02-05T15:05:44.837Z,22.20
2019-02-05T15:08:14.240Z,21.30
2019-02-05T15:10:43.686Z,25.77
2019-02-05T15:13:15.918Z,22.73
2019-02-05T15:15:44.820Z,27.10
2019-02-05T15:18:14.429Z,21.50
2019-02-05T15:20:45.813Z,21.80
2019-02-05T15:23:15.148Z,31.80
2019-02-05T15:25:44.657Z,18.67
2019-02-05T15:28:14.062Z,20.73
2019-02-05T15:30:44.453Z,25.83
2019-02-05T15:33:18.949Z,19.03
2019-02-05T15:35:50.069Z,18.40
2019-02-05T15:38:19.409Z,17.67
2019-02-05T15:40:49.322Z,20.63
2019-02-05T15:43:18.719Z,20.80
2019-02-05T15:45:48.144Z,21.37
2019-02-05T15:48:17.636Z,18.70
2019-02-05T15:50:47.102Z,18.47
2019-02-05T15:53:16.593Z,21.43
2019-02-05T15:55:46.421Z,21.93
2019-02-05T15:58:15.900Z,18.50
2019-02-05T16:00:45.238Z,19.67
2019-02-05T16:03:14.676Z,18.33
2019-02-05T16:05:44.172Z,22.20
2019-02-05T16:08:13.522Z,21.83
2019-02-05T16:10:43.169Z,19.40
2019-02-05T16:13:12.517Z,21.47
2019-02-05T16:15:41.932Z,19.70
2019-02-05T16:18:11.293Z,17.87
2019-02-05T16:20:40.639Z,19.47
2019-02-05T16:23:10.129Z,22.87
2019-02-05T16:25:39.751Z,24.07
2019-02-05T16:28:09.278Z,22.67
2019-02-05T16:30:38.785Z,22.67
2019-02-05T16:33:08.238Z,24.77
2019-02-05T16:35:37.833Z,26.63
2019-02-05T16:38:07.297Z,22.13
2019-02-05T16:40:38.985Z,24.63
2019-02-05T16:43:08.409Z,27.93
2019-02-05T16:45:37.942Z,28.20
2019-02-05T16:48:07.493Z,26.43
2019-02-05T16:50:45.204Z,26.23
2019-02-05T16:53:14.961Z,22.70
2019-02-05T16:55:44.404Z,23.83
2019-02-05T16:58:13.797Z,24.03
2019-02-05T17:00:43.400Z,27.30
2019-02-05T17:03:12.959Z,25.63
2019-02-05T17:05:43.251Z,26.17
2019-02-05T17:08:13.193Z,24.57
2019-02-05T17:10:42.707Z,26.17
2019-02-05T17:13:12.289Z,25.07
2019-02-05T17:15:41.939Z,28.20
2019-02-05T17:18:22.884Z,24.93
2019-02-05T17:20:42.629Z,26.47
2019-02-05T17:23:12.243Z,24.77
2019-02-05T17:25:41.803Z,27.87
2019-02-05T17:28:11.294Z,25.03
2019-02-05T17:30:41.369Z,23.87
2019-02-05T17:33:10.890Z,23.23
2019-02-05T17:35:40.364Z,25.77
2019-02-05T17:38:10.964Z,29.97
2019-02-05T17:40:40.467Z,26.97
2019-02-05T17:43:09.917Z,30.27
2019-02-05T17:45:43.370Z,26.33
2019-02-05T17:48:14.928Z,25.90
2019-02-05T17:50:44.717Z,26.43
2019-02-05T17:53:14.284Z,33.57
2019-02-05T17:55:43.784Z,26.90
2019-02-05T17:58:13.479Z,26.53
2019-02-05T18:00:44.742Z,27.87
2019-02-05T18:03:14.192Z,28.80
2019-02-05T18:05:43.763Z,28.20
2019-02-05T18:08:13.386Z,27.57
2019-02-05T18:10:42.946Z,29.13
2019-02-05T18:13:12.566Z,26.23
2019-02-05T18:15:43.841Z,31.70
2019-02-05T18:18:13.746Z,32.07
2019-02-05T18:20:44.025Z,31.23
2019-02-05T18:23:13.805Z,30.93
2019-02-05T18:25:43.607Z,34.33
2019-02-05T18:28:13.295Z,26.67
2019-02-05T18:30:43.097Z,28.13
2019-02-05T18:33:13.199Z,24.90
2019-02-05T18:35:43.128Z,27.90
2019-02-05T18:38:15.619Z,36.10
2019-02-05T18:40:45.563Z,26.20
2019-02-05T18:43:15.609Z,31.47
2019-02-05T18:45:45.506Z,32.27
2019-02-05T18:48:15.238Z,34.40
2019-02-05T18:50:44.874Z,28.07
2019-02-05T18:53:23.966Z,33.67
2019-02-05T18:55:53.747Z,28.80
2019-02-05T18:58:26.515Z,34.57
2019-02-05T19:00:54.907Z,31.57
2019-02-05T19:03:24.571Z,33.80
2019-02-05T19:05:54.170Z,36.53
2019-02-05T19:08:23.678Z,39.00
2019-02-05T19:10:53.350Z,36.70
2019-02-05T19:13:22.856Z,42.77
2019-02-05T19:15:52.323Z,40.20
2019-02-05T19:18:21.907Z,41.53
2019-02-05T19:20:51.992Z,44.47
2019-02-05T19:23:21.730Z,48.10
2019-02-05T19:26:01.621Z,45.37
2019-02-05T19:28:32.675Z,47.03
2019-02-05T19:31:04.027Z,41.27
2019-02-05T19:33:33.520Z,46.23
2019-02-05T19:36:03.449Z,51.00
2019-02-05T19:38:33.517Z,51.83
2019-02-05T19:41:03.629Z,50.27
2019-02-05T19:43:32.982Z,53.07
2019-02-05T19:46:20.455Z,54.50
2019-02-05T19:48:54.653Z,58.73
2019-02-05T19:51:24.085Z,54.80
2019-02-05T19:53:54.065Z,54.67
2019-02-05T19:56:23.539Z,53.27
2019-02-05T19:58:53.011Z,54.60
2019-02-05T20:01:22.397Z,57.80
2019-02-05T20:03:51.751Z,55.73
2019-02-05T20:06:21.153Z,56.97
2019-02-05T20:08:50.560Z,58.73
2019-02-05T20:11:20.159Z,59.17
2019-02-05T20:13:49.696Z,63.13
2019-02-05T20:16:19.197Z,62.87
2019-02-05T20:18:48.664Z,60.87
2019-02-05T20:21:18.364Z,60.93
2019-02-05T20:23:48.065Z,61.53
2019-02-05T20:26:18.027Z,61.90
2019-02-05T20:28:47.611Z,61.70
2019-02-05T20:31:17.336Z,56.20
2019-02-05T20:33:50.046Z,59.70
2019-02-05T20:36:18.356Z,63.70
2019-02-05T20:38:47.887Z,55.87
2019-02-05T20:41:17.597Z,60.90
2019-02-05T20:43:46.953Z,63.70
2019-02-05T20:46:16.324Z,64.47
2019-02-05T20:48:45.656Z,68.03
2019-02-05T20:51:15.078Z,65.67
2019-02-05T20:53:44.447Z,59.27
2019-02-05T20:56:13.873Z,66.47
2019-02-05T20:58:43.464Z,66.63
2019-02-05T21:01:12.826Z,62.63
2019-02-05T21:03:42.163Z,65.93
2019-02-05T21:06:11.494Z,66.93
2019-02-05T21:08:40.862Z,73.57
2019-02-05T21:11:10.329Z,63.57
2019-02-05T21:13:39.658Z,64.03
2019-02-05T21:16:09.033Z,65.33
2019-02-05T21:18:38.379Z,73.20
2019-02-05T21:21:07.718Z,69.77
2019-02-05T21:23:38.139Z,65.43
2019-02-05T21:26:07.720Z,63.03
2019-02-05T21:28:37.052Z,66.03
2019-02-05T21:31:06.790Z,67.87
2019-02-05T21:33:36.126Z,72.77
2019-02-05T21:36:05.521Z,67.70
2019-02-05T21:38:34.877Z,66.33
2019-02-05T21:41:04.284Z,65.27
2019-02-05T21:43:33.609Z,73.37
2019-02-05T21:46:03.309Z,64.70
2019-02-05T21:48:32.649Z,67.63
2019-02-05T21:51:01.985Z,69.63
2019-02-05T21:53:31.331Z,75.93
2019-02-05T21:56:00.668Z,68.67
2019-02-05T21:58:30.001Z,69.17
2019-02-05T22:00:59.385Z,62.23
2019-02-05T22:03:28.891Z,72.37
2019-02-05T22:05:58.255Z,70.03
2019-02-05T22:08:27.645Z,76.60
2019-02-05T22:10:57.016Z,68.27
2019-02-05T22:13:26.382Z,68.13
2019-02-05T22:15:55.750Z,74.73
2019-02-05T22:18:25.091Z,73.03
2019-02-05T22:20:54.416Z,70.07
2019-02-05T22:23:24.055Z,65.47
2019-02-05T22:25:53.382Z,69.50
2019-02-05T22:28:22.712Z,69.90
2019-02-05T22:30:52.445Z,71.10
2019-02-05T22:33:21.786Z,77.37
2019-02-05T22:35:51.114Z,73.47
2019-02-05T22:38:20.474Z,72.40
2019-02-05T22:40:49.810Z,72.37
2019-02-05T22:43:19.418Z,71.87
2019-02-05T22:45:48.792Z,77.07
2019-02-05T22:48:18.647Z,67.43
2019-02-05T22:50:47.557Z,69.83
2019-02-05T22:53:16.855Z,72.97
2019-02-05T22:55:46.254Z,62.90
2019-02-05T22:58:15.647Z,78.93
2019-02-05T23:00:57.680Z,71.43
2019-02-05T23:03:36.034Z,71.63
2019-02-05T23:06:18.984Z,80.83
2019-02-05T23:08:48.461Z,83.23
2019-02-05T23:11:38.855Z,82.93
2019-02-05T23:14:08.471Z,81.27
2019-02-05T23:16:37.469Z,87.97
2019-02-05T23:19:07.011Z,80.10
2019-02-05T23:21:36.412Z,92.00
2019-02-05T23:24:05.818Z,91.70
2019-02-05T23:26:35.182Z,87.40
2019-02-05T23:29:04.595Z,83.60
2019-02-05T23:31:33.921Z,84.63
2019-02-05T23:34:03.277Z,78.90
2019-02-05T23:36:32.617Z,80.00
2019-02-05T23:39:01.951Z,89.30
2019-02-05T23:41:31.310Z,80.20
2019-02-05T23:44:00.644Z,88.27
2019-02-05T23:46:29.969Z,88.47
2019-02-05T23:48:59.344Z,87.90
2019-02-05T23:51:28.669Z,82.87
2019-02-05T23:53:58.007Z,84.00
2019-02-05T23:56:27.370Z,81.97
2019-02-05T23:58:56.704Z,85.37
